sensor_id;sensor_type;location;lat;lon;timestamp;pressure;altitude;pressure_sealevel;temperature
54746;BMP180;40640;48.130;11.356;2022-09-27T00:02:13;94129.00;;;12.80
54746;BMP180;40640;48.130;11.356;2022-09-27T00:06:20;94126.00;;;13.00
54746;BMP180;40640;48.130;11.356;2022-09-27T00:10:24;94114.00;;;13.00
54746;BMP180;40640;48.130;11.356;2022-09-27T00:14:28;94123.00;;;13.10
54746;BMP180;40640;48.130;11.356;2022-09-27T00:18:32;94128.00;;;13.10
54746;BMP180;40640;48.130;11.356;2022-09-27T00:22:35;94132.00;;;13.10
54746;BMP180;40640;48.130;11.356;2022-09-27T00:26:38;94117.00;;;13.10
54746;BMP180;40640;48.130;11.356;2022-09-27T00:30:42;94114.00;;;13.00
54746;BMP180;40640;48.130;11.356;2022-09-27T00:34:45;94110.00;;;13.00
54746;BMP180;40640;48.130;11.356;2022-09-27T00:38:48;94103.00;;;13.00
54746;BMP180;40640;48.130;11.356;2022-09-27T00:42:51;94113.00;;;13.10
54746;BMP180;40640;48.130;11.356;2022-09-27T00:46:59;94102.00;;;13.00
54746;BMP180;40640;48.130;11.356;2022-09-27T00:51:06;94094.00;;;12.90
54746;BMP180;40640;48.130;11.356;2022-09-27T00:55:13;94101.00;;;12.90
54746;BMP180;40640;48.130;11.356;2022-09-27T00:59:21;94089.00;;;12.90
54746;BMP180;40640;48.130;11.356;2022-09-27T01:03:33;94085.00;;;12.80
54746;BMP180;40640;48.130;11.356;2022-09-27T01:07:37;94070.00;;;12.50
54746;BMP180;40640;48.130;11.356;2022-09-27T01:11:44;94072.00;;;12.50
54746;BMP180;40640;48.130;11.356;2022-09-27T01:15:54;94075.00;;;12.60
54746;BMP180;40640;48.130;11.356;2022-09-27T01:20:28;94070.00;;;12.60
54746;BMP180;40640;48.130;11.356;2022-09-27T01:25:04;94058.00;;;12.50
54746;BMP180;40640;48.130;11.356;2022-09-27T01:29:15;94050.00;;;12.40
54746;BMP180;40640;48.130;11.356;2022-09-27T01:33:33;94054.00;;;12.30
54746;BMP180;40640;48.130;11.356;2022-09-27T01:37:40;94056.00;;;12.40
54746;BMP180;40640;48.130;11.356;2022-09-27T01:41:52;94066.00;;;12.20
54746;BMP180;40640;48.130;11.356;2022-09-27T01:46:10;94053.00;;;12.10
54746;BMP180;40640;48.130;11.356;2022-09-27T01:50:39;94047.00;;;12.20
54746;BMP180;40640;48.130;11.356;2022-09-27T01:54:46;94043.00;;;12.20
54746;BMP180;40640;48.130;11.356;2022-09-27T01:59:03;94047.00;;;12.00
54746;BMP180;40640;48.130;11.356;2022-09-27T02:03:12;94048.00;;;12.20
54746;BMP180;40640;48.130;11.356;2022-09-27T02:07:57;94045.00;;;12.10
54746;BMP180;40640;48.130;11.356;2022-09-27T02:12:05;94039.00;;;12.10
54746;BMP180;40640;48.130;11.356;2022-09-27T02:16:19;94052.00;;;12.20
54746;BMP180;40640;48.130;11.356;2022-09-27T02:20:28;94041.00;;;12.10
54746;BMP180;40640;48.130;11.356;2022-09-27T02:24:39;94039.00;;;12.10
54746;BMP180;40640;48.130;11.356;2022-09-27T02:28:46;94034.00;;;12.00
54746;BMP180;40640;48.130;11.356;2022-09-27T02:32:58;94017.00;;;11.90
54746;BMP180;40640;48.130;11.356;2022-09-27T02:37:01;94024.00;;;11.90
54746;BMP180;40640;48.130;11.356;2022-09-27T02:41:12;94024.00;;;11.80
54746;BMP180;40640;48.130;11.356;2022-09-27T02:45:17;94009.00;;;11.70
54746;BMP180;40640;48.130;11.356;2022-09-27T02:49:31;94007.00;;;11.60
54746;BMP180;40640;48.130;11.356;2022-09-27T02:54:18;94007.00;;;11.70
54746;BMP180;40640;48.130;11.356;2022-09-27T02:58:41;93993.00;;;11.60
54746;BMP180;40640;48.130;11.356;2022-09-27T03:03:16;93991.00;;;11.70
54746;BMP180;40640;48.130;11.356;2022-09-27T03:07:30;93986.00;;;11.60
54746;BMP180;40640;48.130;11.356;2022-09-27T03:11:33;93981.00;;;11.40
54746;BMP180;40640;48.130;11.356;2022-09-27T03:15:37;93981.00;;;11.50
54746;BMP180;40640;48.130;11.356;2022-09-27T03:19:40;93969.00;;;11.50
54746;BMP180;40640;48.130;11.356;2022-09-27T03:24:01;93976.00;;;11.20
54746;BMP180;40640;48.130;11.356;2022-09-27T03:28:05;93973.00;;;11.30
54746;BMP180;40640;48.130;11.356;2022-09-27T03:32:10;93970.00;;;11.20
54746;BMP180;40640;48.130;11.356;2022-09-27T03:36:31;93967.00;;;11.30
54746;BMP180;40640;48.130;11.356;2022-09-27T03:40:35;93955.00;;;11.20
54746;BMP180;40640;48.130;11.356;2022-09-27T03:44:39;93963.00;;;11.30
54746;BMP180;40640;48.130;11.356;2022-09-27T03:48:44;93968.00;;;11.10
54746;BMP180;40640;48.130;11.356;2022-09-27T03:52:47;93961.00;;;11.30
54746;BMP180;40640;48.130;11.356;2022-09-27T03:56:49;93964.00;;;11.40
54746;BMP180;40640;48.130;11.356;2022-09-27T04:00:53;93957.00;;;11.30
54746;BMP180;40640;48.130;11.356;2022-09-27T04:04:57;93959.00;;;11.40
54746;BMP180;40640;48.130;11.356;2022-09-27T04:09:00;93946.00;;;11.30
54746;BMP180;40640;48.130;11.356;2022-09-27T04:13:23;93949.00;;;11.50
54746;BMP180;40640;48.130;11.356;2022-09-27T04:17:29;93952.00;;;11.50
54746;BMP180;40640;48.130;11.356;2022-09-27T04:22:08;93956.00;;;11.60
54746;BMP180;40640;48.130;11.356;2022-09-27T04:26:11;93950.00;;;11.50
54746;BMP180;40640;48.130;11.356;2022-09-27T04:30:23;93943.00;;;11.50
54746;BMP180;40640;48.130;11.356;2022-09-27T04:34:47;93944.00;;;11.40
54746;BMP180;40640;48.130;11.356;2022-09-27T04:39:09;93951.00;;;11.30
54746;BMP180;40640;48.130;11.356;2022-09-27T04:43:19;93947.00;;;11.40
54746;BMP180;40640;48.130;11.356;2022-09-27T04:47:22;93948.00;;;11.40
54746;BMP180;40640;48.130;11.356;2022-09-27T04:51:25;93957.00;;;11.40
54746;BMP180;40640;48.130;11.356;2022-09-27T04:55:31;93962.00;;;11.40
54746;BMP180;40640;48.130;11.356;2022-09-27T04:59:34;93963.00;;;11.40
54746;BMP180;40640;48.130;11.356;2022-09-27T05:03:37;93961.00;;;11.50
54746;BMP180;40640;48.130;11.356;2022-09-27T05:07:45;93978.00;;;11.40
54746;BMP180;40640;48.130;11.356;2022-09-27T05:12:01;93978.00;;;11.40
54746;BMP180;40640;48.130;11.356;2022-09-27T05:16:41;93982.00;;;11.20
54746;BMP180;40640;48.130;11.356;2022-09-27T05:21:03;93997.00;;;11.20
54746;BMP180;40640;48.130;11.356;2022-09-27T05:25:11;93978.00;;;11.30
54746;BMP180;40640;48.130;11.356;2022-09-27T05:29:15;93983.00;;;11.20
54746;BMP180;40640;48.130;11.356;2022-09-27T05:33:30;93997.00;;;11.30
54746;BMP180;40640;48.130;11.356;2022-09-27T05:37:54;93995.00;;;11.10
54746;BMP180;40640;48.130;11.356;2022-09-27T05:41:58;94013.00;;;11.10
54746;BMP180;40640;48.130;11.356;2022-09-27T05:46:02;94016.00;;;11.00
54746;BMP180;40640;48.130;11.356;2022-09-27T05:50:07;94019.00;;;11.20
54746;BMP180;40640;48.130;11.356;2022-09-27T05:54:10;94021.00;;;11.20
54746;BMP180;40640;48.130;11.356;2022-09-27T05:58:14;94029.00;;;11.20
54746;BMP180;40640;48.130;11.356;2022-09-27T06:02:28;94041.00;;;11.30
54746;BMP180;40640;48.130;11.356;2022-09-27T06:06:49;94047.00;;;11.20
54746;BMP180;40640;48.130;11.356;2022-09-27T06:10:59;94040.00;;;11.20
54746;BMP180;40640;48.130;11.356;2022-09-27T06:15:02;94056.00;;;11.20
54746;BMP180;40640;48.130;11.356;2022-09-27T06:19:11;94069.00;;;11.20
54746;BMP180;40640;48.130;11.356;2022-09-27T06:23:15;94072.00;;;11.60
54746;BMP180;40640;48.130;11.356;2022-09-27T06:27:20;94064.00;;;11.40
54746;BMP180;40640;48.130;11.356;2022-09-27T06:31:59;94068.00;;;11.50
54746;BMP180;40640;48.130;11.356;2022-09-27T06:36:09;94073.00;;;11.50
54746;BMP180;40640;48.130;11.356;2022-09-27T06:40:14;94082.00;;;11.70
54746;BMP180;40640;48.130;11.356;2022-09-27T06:44:31;94066.00;;;11.80
54746;BMP180;40640;48.130;11.356;2022-09-27T06:48:53;94085.00;;;11.80
54746;BMP180;40640;48.130;11.356;2022-09-27T06:52:58;94088.00;;;11.80
54746;BMP180;40640;48.130;11.356;2022-09-27T06:57:01;94090.00;;;11.90
54746;BMP180;40640;48.130;11.356;2022-09-27T07:01:04;94098.00;;;12.10
54746;BMP180;40640;48.130;11.356;2022-09-27T07:05:29;94103.00;;;12.20
54746;BMP180;40640;48.130;11.356;2022-09-27T07:09:43;94100.00;;;12.10
54746;BMP180;40640;48.130;11.356;2022-09-27T07:13:47;94092.00;;;11.90
54746;BMP180;40640;48.130;11.356;2022-09-27T07:17:55;94103.00;;;11.90
54746;BMP180;40640;48.130;11.356;2022-09-27T07:22:01;94093.00;;;12.10
54746;BMP180;40640;48.130;11.356;2022-09-27T07:26:06;94098.00;;;12.00
54746;BMP180;40640;48.130;11.356;2022-09-27T07:30:12;94101.00;;;12.20
54746;BMP180;40640;48.130;11.356;2022-09-27T07:34:15;94111.00;;;12.20
54746;BMP180;40640;48.130;11.356;2022-09-27T07:38:19;94103.00;;;12.30
54746;BMP180;40640;48.130;11.356;2022-09-27T07:42:23;94112.00;;;12.30
54746;BMP180;40640;48.130;11.356;2022-09-27T07:46:29;94104.00;;;12.50
54746;BMP180;40640;48.130;11.356;2022-09-27T07:50:49;94104.00;;;12.80
54746;BMP180;40640;48.130;11.356;2022-09-27T07:55:09;94125.00;;;13.10
54746;BMP180;40640;48.130;11.356;2022-09-27T07:59:25;94179.00;;;12.60
54746;BMP180;40640;48.130;11.356;2022-09-27T08:03:28;94178.00;;;11.80
54746;BMP180;40640;48.130;11.356;2022-09-27T08:07:32;94178.00;;;11.30
54746;BMP180;40640;48.130;11.356;2022-09-27T08:11:35;94186.00;;;10.90
54746;BMP180;40640;48.130;11.356;2022-09-27T08:15:39;94195.00;;;11.00
54746;BMP180;40640;48.130;11.356;2022-09-27T08:19:43;94196.00;;;11.00
54746;BMP180;40640;48.130;11.356;2022-09-27T08:24:00;94202.00;;;11.20
54746;BMP180;40640;48.130;11.356;2022-09-27T08:28:27;94209.00;;;10.90
54746;BMP180;40640;48.130;11.356;2022-09-27T08:32:55;94206.00;;;10.90
54746;BMP180;40640;48.130;11.356;2022-09-27T08:36:58;94214.00;;;11.20
54746;BMP180;40640;48.130;11.356;2022-09-27T08:41:05;94209.00;;;11.70
54746;BMP180;40640;48.130;11.356;2022-09-27T08:45:15;94210.00;;;13.30
54746;BMP180;40640;48.130;11.356;2022-09-27T08:49:25;94208.00;;;12.80
54746;BMP180;40640;48.130;11.356;2022-09-27T08:53:33;94211.00;;;12.30
54746;BMP180;40640;48.130;11.356;2022-09-27T08:57:39;94216.00;;;12.70
54746;BMP180;40640;48.130;11.356;2022-09-27T09:01:42;94215.00;;;13.20
54746;BMP180;40640;48.130;11.356;2022-09-27T09:06:01;94224.00;;;12.70
54746;BMP180;40640;48.130;11.356;2022-09-27T09:10:21;94225.00;;;15.40
54746;BMP180;40640;48.130;11.356;2022-09-27T09:14:53;94229.00;;;18.80
54746;BMP180;40640;48.130;11.356;2022-09-27T09:19:12;94228.00;;;20.30
54746;BMP180;40640;48.130;11.356;2022-09-27T09:24:05;94231.00;;;18.10
54746;BMP180;40640;48.130;11.356;2022-09-27T09:28:23;94230.00;;;16.90
54746;BMP180;40640;48.130;11.356;2022-09-27T09:32:37;94234.00;;;15.40
54746;BMP180;40640;48.130;11.356;2022-09-27T09:36:50;94244.00;;;14.50
54746;BMP180;40640;48.130;11.356;2022-09-27T09:41:03;94251.00;;;13.90
54746;BMP180;40640;48.130;11.356;2022-09-27T09:45:14;94253.00;;;13.80
54746;BMP180;40640;48.130;11.356;2022-09-27T09:49:22;94244.00;;;14.00
54746;BMP180;40640;48.130;11.356;2022-09-27T09:53:33;94245.00;;;14.60
54746;BMP180;40640;48.130;11.356;2022-09-27T09:57:51;94243.00;;;13.90
54746;BMP180;40640;48.130;11.356;2022-09-27T10:02:13;94255.00;;;13.50
54746;BMP180;40640;48.130;11.356;2022-09-27T10:06:19;94261.00;;;13.50
54746;BMP180;40640;48.130;11.356;2022-09-27T10:10:23;94260.00;;;13.40
54746;BMP180;40640;48.130;11.356;2022-09-27T10:14:30;94256.00;;;12.90
54746;BMP180;40640;48.130;11.356;2022-09-27T10:18:38;94261.00;;;13.20
54746;BMP180;40640;48.130;11.356;2022-09-27T10:22:50;94269.00;;;14.30
54746;BMP180;40640;48.130;11.356;2022-09-27T10:27:16;94269.00;;;13.70
54746;BMP180;40640;48.130;11.356;2022-09-27T10:31:21;94290.00;;;13.20
54746;BMP180;40640;48.130;11.356;2022-09-27T10:35:34;94298.00;;;12.80
54746;BMP180;40640;48.130;11.356;2022-09-27T10:39:39;94281.00;;;12.20
54746;BMP180;40640;48.130;11.356;2022-09-27T10:43:43;94280.00;;;12.30
54746;BMP180;40640;48.130;11.356;2022-09-27T10:48:00;94267.00;;;13.50
54746;BMP180;40640;48.130;11.356;2022-09-27T10:52:23;94286.00;;;16.40
54746;BMP180;40640;48.130;11.356;2022-09-27T10:56:28;94281.00;;;18.70
54746;BMP180;40640;48.130;11.356;2022-09-27T11:00:33;94296.00;;;20.90
54746;BMP180;40640;48.130;11.356;2022-09-27T11:04:40;94288.00;;;21.20
54746;BMP180;40640;48.130;11.356;2022-09-27T11:08:43;94275.00;;;19.40
54746;BMP180;40640;48.130;11.356;2022-09-27T11:13:08;94279.00;;;17.20
54746;BMP180;40640;48.130;11.356;2022-09-27T11:17:16;94272.00;;;15.90
54746;BMP180;40640;48.130;11.356;2022-09-27T11:21:34;94283.00;;;15.10
54746;BMP180;40640;48.130;11.356;2022-09-27T11:25:48;94296.00;;;14.50
54746;BMP180;40640;48.130;11.356;2022-09-27T11:30:02;94279.00;;;14.10
54746;BMP180;40640;48.130;11.356;2022-09-27T11:34:39;94269.00;;;14.20
54746;BMP180;40640;48.130;11.356;2022-09-27T11:38:57;94274.00;;;18.20
54746;BMP180;40640;48.130;11.356;2022-09-27T11:43:20;94275.00;;;17.50
54746;BMP180;40640;48.130;11.356;2022-09-27T11:47:35;94250.00;;;15.30
54746;BMP180;40640;48.130;11.356;2022-09-27T11:56:14;94239.00;;;14.00
54746;BMP180;40640;48.130;11.356;2022-09-27T12:00:20;94244.00;;;13.80
54746;BMP180;40640;48.130;11.356;2022-09-27T12:04:54;94268.00;;;13.60
54746;BMP180;40640;48.130;11.356;2022-09-27T12:09:05;94272.00;;;13.30
54746;BMP180;40640;48.130;11.356;2022-09-27T12:13:13;94285.00;;;13.00
54746;BMP180;40640;48.130;11.356;2022-09-27T12:17:21;94254.00;;;13.20
54746;BMP180;40640;48.130;11.356;2022-09-27T12:21:29;94252.00;;;13.60
54746;BMP180;40640;48.130;11.356;2022-09-27T12:25:36;94243.00;;;13.60
54746;BMP180;40640;48.130;11.356;2022-09-27T12:29:49;94240.00;;;13.50
54746;BMP180;40640;48.130;11.356;2022-09-27T12:34:02;94236.00;;;13.50
54746;BMP180;40640;48.130;11.356;2022-09-27T12:38:10;94233.00;;;14.60
54746;BMP180;40640;48.130;11.356;2022-09-27T12:42:19;94226.00;;;16.80
54746;BMP180;40640;48.130;11.356;2022-09-27T12:46:34;94229.00;;;16.20
54746;BMP180;40640;48.130;11.356;2022-09-27T12:50:43;94228.00;;;15.30
54746;BMP180;40640;48.130;11.356;2022-09-27T12:54:59;94227.00;;;14.80
54746;BMP180;40640;48.130;11.356;2022-09-27T13:03:54;94242.00;;;14.80
54746;BMP180;40640;48.130;11.356;2022-09-27T13:08:18;94232.00;;;15.40
54746;BMP180;40640;48.130;11.356;2022-09-27T13:12:25;94248.00;;;16.50
54746;BMP180;40640;48.130;11.356;2022-09-27T13:16:30;94225.00;;;17.20
54746;BMP180;40640;48.130;11.356;2022-09-27T13:20:40;94225.00;;;17.40
54746;BMP180;40640;48.130;11.356;2022-09-27T13:24:59;94229.00;;;16.20
54746;BMP180;40640;48.130;11.356;2022-09-27T13:29:27;94228.00;;;15.20
54746;BMP180;40640;48.130;11.356;2022-09-27T13:33:44;94229.00;;;15.30
54746;BMP180;40640;48.130;11.356;2022-09-27T13:37:55;94236.00;;;15.00
54746;BMP180;40640;48.130;11.356;2022-09-27T13:42:30;94237.00;;;14.50
54746;BMP180;40640;48.130;11.356;2022-09-27T13:46:44;94241.00;;;14.00
54746;BMP180;40640;48.130;11.356;2022-09-27T13:51:00;94227.00;;;13.60
54746;BMP180;40640;48.130;11.356;2022-09-27T13:55:36;94228.00;;;13.40
54746;BMP180;40640;48.130;11.356;2022-09-27T13:59:32;94225.00;;;13.30
54746;BMP180;40640;48.130;11.356;2022-09-27T14:04:04;94242.00;;;13.20
54746;BMP180;40640;48.130;11.356;2022-09-27T14:08:19;94225.00;;;13.20
54746;BMP180;40640;48.130;11.356;2022-09-27T14:12:30;94243.00;;;13.20
54746;BMP180;40640;48.130;11.356;2022-09-27T14:16:40;94244.00;;;13.90
54746;BMP180;40640;48.130;11.356;2022-09-27T14:20:45;94248.00;;;14.40
54746;BMP180;40640;48.130;11.356;2022-09-27T14:25:21;94264.00;;;13.90
54746;BMP180;40640;48.130;11.356;2022-09-27T14:29:32;94265.00;;;13.60
54746;BMP180;40640;48.130;11.356;2022-09-27T14:33:35;94267.00;;;13.40
54746;BMP180;40640;48.130;11.356;2022-09-27T14:37:44;94262.00;;;13.00
54746;BMP180;40640;48.130;11.356;2022-09-27T14:41:49;94264.00;;;13.00
54746;BMP180;40640;48.130;11.356;2022-09-27T14:45:57;94271.00;;;12.90
54746;BMP180;40640;48.130;11.356;2022-09-27T14:50:12;94254.00;;;12.70
54746;BMP180;40640;48.130;11.356;2022-09-27T14:54:21;94265.00;;;12.60
54746;BMP180;40640;48.130;11.356;2022-09-27T14:58:25;94259.00;;;12.60
54746;BMP180;40640;48.130;11.356;2022-09-27T15:02:50;94253.00;;;12.50
54746;BMP180;40640;48.130;11.356;2022-09-27T15:06:55;94245.00;;;12.60
54746;BMP180;40640;48.130;11.356;2022-09-27T15:10:59;94251.00;;;12.50
54746;BMP180;40640;48.130;11.356;2022-09-27T15:15:04;94255.00;;;12.40
54746;BMP180;40640;48.130;11.356;2022-09-27T15:19:13;94251.00;;;12.40
54746;BMP180;40640;48.130;11.356;2022-09-27T15:23:25;94248.00;;;12.50
54746;BMP180;40640;48.130;11.356;2022-09-27T15:27:28;94242.00;;;12.60
54746;BMP180;40640;48.130;11.356;2022-09-27T15:31:32;94236.00;;;12.50
54746;BMP180;40640;48.130;11.356;2022-09-27T15:35:37;94244.00;;;12.50
54746;BMP180;40640;48.130;11.356;2022-09-27T15:39:40;94225.00;;;12.30
54746;BMP180;40640;48.130;11.356;2022-09-27T15:43:44;94214.00;;;12.40
54746;BMP180;40640;48.130;11.356;2022-09-27T15:47:48;94207.00;;;12.10
54746;BMP180;40640;48.130;11.356;2022-09-27T15:51:54;94214.00;;;12.10
54746;BMP180;40640;48.130;11.356;2022-09-27T15:55:57;94238.00;;;12.00
54746;BMP180;40640;48.130;11.356;2022-09-27T16:00:01;94239.00;;;11.70
54746;BMP180;40640;48.130;11.356;2022-09-27T16:04:12;94249.00;;;11.40
54746;BMP180;40640;48.130;11.356;2022-09-27T16:08:16;94242.00;;;11.40
54746;BMP180;40640;48.130;11.356;2022-09-27T16:12:19;94259.00;;;11.80
54746;BMP180;40640;48.130;11.356;2022-09-27T16:16:22;94265.00;;;11.80
54746;BMP180;40640;48.130;11.356;2022-09-27T16:20:25;94252.00;;;11.90
54746;BMP180;40640;48.130;11.356;2022-09-27T16:24:30;94261.00;;;11.80
54746;BMP180;40640;48.130;11.356;2022-09-27T16:28:33;94255.00;;;11.70
54746;BMP180;40640;48.130;11.356;2022-09-27T16:32:39;94252.00;;;11.80
54746;BMP180;40640;48.130;11.356;2022-09-27T16:36:42;94253.00;;;11.80
54746;BMP180;40640;48.130;11.356;2022-09-27T16:40:46;94246.00;;;11.70
54746;BMP180;40640;48.130;11.356;2022-09-27T16:44:49;94257.00;;;11.70
54746;BMP180;40640;48.130;11.356;2022-09-27T16:48:54;94255.00;;;11.80
54746;BMP180;40640;48.130;11.356;2022-09-27T16:52:57;94277.00;;;11.60
54746;BMP180;40640;48.130;11.356;2022-09-27T16:57:02;94273.00;;;11.40
54746;BMP180;40640;48.130;11.356;2022-09-27T17:01:05;94279.00;;;11.40
54746;BMP180;40640;48.130;11.356;2022-09-27T17:05:08;94282.00;;;11.40
54746;BMP180;40640;48.130;11.356;2022-09-27T17:09:11;94288.00;;;11.60
54746;BMP180;40640;48.130;11.356;2022-09-27T17:13:15;94282.00;;;11.40
54746;BMP180;40640;48.130;11.356;2022-09-27T17:17:18;94300.00;;;11.10
54746;BMP180;40640;48.130;11.356;2022-09-27T17:21:21;94282.00;;;11.10
54746;BMP180;40640;48.130;11.356;2022-09-27T17:25:24;94281.00;;;11.10
54746;BMP180;40640;48.130;11.356;2022-09-27T17:29:29;94273.00;;;11.20
54746;BMP180;40640;48.130;11.356;2022-09-27T17:33:32;94285.00;;;11.10
54746;BMP180;40640;48.130;11.356;2022-09-27T17:37:41;94286.00;;;11.10
54746;BMP180;40640;48.130;11.356;2022-09-27T17:41:44;94282.00;;;11.00
54746;BMP180;40640;48.130;11.356;2022-09-27T17:45:48;94297.00;;;11.10
54746;BMP180;40640;48.130;11.356;2022-09-27T17:49:51;94295.00;;;10.90
54746;BMP180;40640;48.130;11.356;2022-09-27T17:54:11;94294.00;;;11.20
54746;BMP180;40640;48.130;11.356;2022-09-27T17:58:14;94303.00;;;11.20
54746;BMP180;40640;48.130;11.356;2022-09-27T18:02:18;94301.00;;;11.00
54746;BMP180;40640;48.130;11.356;2022-09-27T18:06:21;94319.00;;;11.10
54746;BMP180;40640;48.130;11.356;2022-09-27T18:10:24;94321.00;;;11.00
54746;BMP180;40640;48.130;11.356;2022-09-27T18:14:27;94314.00;;;11.00
54746;BMP180;40640;48.130;11.356;2022-09-27T18:18:33;94304.00;;;11.00
54746;BMP180;40640;48.130;11.356;2022-09-27T18:22:38;94306.00;;;10.80
54746;BMP180;40640;48.130;11.356;2022-09-27T18:26:42;94317.00;;;11.00
54746;BMP180;40640;48.130;11.356;2022-09-27T18:30:49;94309.00;;;10.80
54746;BMP180;40640;48.130;11.356;2022-09-27T18:34:53;94317.00;;;10.80
54746;BMP180;40640;48.130;11.356;2022-09-27T18:38:57;94333.00;;;11.00
54746;BMP180;40640;48.130;11.356;2022-09-27T18:43:00;94329.00;;;10.70
54746;BMP180;40640;48.130;11.356;2022-09-27T18:47:02;94326.00;;;10.80
54746;BMP180;40640;48.130;11.356;2022-09-27T18:51:08;94329.00;;;10.80
54746;BMP180;40640;48.130;11.356;2022-09-27T18:55:11;94337.00;;;10.90
54746;BMP180;40640;48.130;11.356;2022-09-27T18:59:14;94336.00;;;10.90
54746;BMP180;40640;48.130;11.356;2022-09-27T19:03:22;94335.00;;;11.00
54746;BMP180;40640;48.130;11.356;2022-09-27T19:07:29;94335.00;;;10.70
54746;BMP180;40640;48.130;11.356;2022-09-27T19:12:00;94334.00;;;10.70
54746;BMP180;40640;48.130;11.356;2022-09-27T19:16:13;94327.00;;;10.80
54746;BMP180;40640;48.130;11.356;2022-09-27T19:20:16;94330.00;;;10.60
54746;BMP180;40640;48.130;11.356;2022-09-27T19:24:20;94337.00;;;10.50
54746;BMP180;40640;48.130;11.356;2022-09-27T19:28:23;94336.00;;;10.40
54746;BMP180;40640;48.130;11.356;2022-09-27T19:32:26;94346.00;;;10.60
54746;BMP180;40640;48.130;11.356;2022-09-27T19:36:29;94333.00;;;10.60
54746;BMP180;40640;48.130;11.356;2022-09-27T19:40:33;94329.00;;;10.60
54746;BMP180;40640;48.130;11.356;2022-09-27T19:44:36;94339.00;;;10.90
54746;BMP180;40640;48.130;11.356;2022-09-27T19:48:38;94333.00;;;10.90
54746;BMP180;40640;48.130;11.356;2022-09-27T19:52:41;94328.00;;;10.70
54746;BMP180;40640;48.130;11.356;2022-09-27T19:56:45;94343.00;;;10.90
54746;BMP180;40640;48.130;11.356;2022-09-27T20:00:56;94314.00;;;10.70
54746;BMP180;40640;48.130;11.356;2022-09-27T20:04:59;94322.00;;;10.80
54746;BMP180;40640;48.130;11.356;2022-09-27T20:09:02;94318.00;;;10.90
54746;BMP180;40640;48.130;11.356;2022-09-27T20:13:06;94318.00;;;10.70
54746;BMP180;40640;48.130;11.356;2022-09-27T20:17:08;94309.00;;;10.70
54746;BMP180;40640;48.130;11.356;2022-09-27T20:21:12;94305.00;;;10.60
54746;BMP180;40640;48.130;11.356;2022-09-27T20:25:15;94298.00;;;10.60
54746;BMP180;40640;48.130;11.356;2022-09-27T20:29:19;94302.00;;;10.50
54746;BMP180;40640;48.130;11.356;2022-09-27T20:33:22;94293.00;;;10.50
54746;BMP180;40640;48.130;11.356;2022-09-27T20:37:42;94289.00;;;10.60
54746;BMP180;40640;48.130;11.356;2022-09-27T20:41:45;94291.00;;;10.50
54746;BMP180;40640;48.130;11.356;2022-09-27T20:45:49;94302.00;;;10.50
54746;BMP180;40640;48.130;11.356;2022-09-27T20:49:52;94293.00;;;10.60
54746;BMP180;40640;48.130;11.356;2022-09-27T20:53:55;94297.00;;;10.70
54746;BMP180;40640;48.130;11.356;2022-09-27T20:57:57;94306.00;;;10.50
54746;BMP180;40640;48.130;11.356;2022-09-27T21:02:01;94299.00;;;10.50
54746;BMP180;40640;48.130;11.356;2022-09-27T21:06:05;94303.00;;;10.70
54746;BMP180;40640;48.130;11.356;2022-09-27T21:10:08;94296.00;;;10.90
54746;BMP180;40640;48.130;11.356;2022-09-27T21:14:11;94296.00;;;10.60
54746;BMP180;40640;48.130;11.356;2022-09-27T21:18:15;94296.00;;;10.70
54746;BMP180;40640;48.130;11.356;2022-09-27T21:22:20;94297.00;;;10.80
54746;BMP180;40640;48.130;11.356;2022-09-27T21:26:24;94293.00;;;10.70
54746;BMP180;40640;48.130;11.356;2022-09-27T21:30:27;94292.00;;;10.80
54746;BMP180;40640;48.130;11.356;2022-09-27T21:34:32;94287.00;;;10.60
54746;BMP180;40640;48.130;11.356;2022-09-27T21:38:35;94294.00;;;10.50
54746;BMP180;40640;48.130;11.356;2022-09-27T21:42:38;94306.00;;;10.90
54746;BMP180;40640;48.130;11.356;2022-09-27T21:46:41;94297.00;;;10.70
54746;BMP180;40640;48.130;11.356;2022-09-27T21:50:45;94299.00;;;10.60
54746;BMP180;40640;48.130;11.356;2022-09-27T21:54:49;94299.00;;;10.70
54746;BMP180;40640;48.130;11.356;2022-09-27T21:58:52;94311.00;;;10.90
54746;BMP180;40640;48.130;11.356;2022-09-27T22:02:55;94303.00;;;10.80
54746;BMP180;40640;48.130;11.356;2022-09-27T22:06:59;94316.00;;;10.60
54746;BMP180;40640;48.130;11.356;2022-09-27T22:11:03;94312.00;;;10.50
54746;BMP180;40640;48.130;11.356;2022-09-27T22:15:06;94304.00;;;10.40
54746;BMP180;40640;48.130;11.356;2022-09-27T22:19:10;94292.00;;;10.50
54746;BMP180;40640;48.130;11.356;2022-09-27T22:23:14;94300.00;;;10.40
54746;BMP180;40640;48.130;11.356;2022-09-27T22:27:17;94292.00;;;10.40
54746;BMP180;40640;48.130;11.356;2022-09-27T22:31:21;94279.00;;;10.40
54746;BMP180;40640;48.130;11.356;2022-09-27T22:35:24;94291.00;;;10.40
54746;BMP180;40640;48.130;11.356;2022-09-27T22:39:28;94280.00;;;10.50
54746;BMP180;40640;48.130;11.356;2022-09-27T22:43:31;94279.00;;;10.60
54746;BMP180;40640;48.130;11.356;2022-09-27T22:47:34;94265.00;;;10.50
54746;BMP180;40640;48.130;11.356;2022-09-27T22:51:36;94271.00;;;10.50
54746;BMP180;40640;48.130;11.356;2022-09-27T22:55:41;94273.00;;;10.70
54746;BMP180;40640;48.130;11.356;2022-09-27T22:59:43;94255.00;;;10.40
54746;BMP180;40640;48.130;11.356;2022-09-27T23:03:47;94256.00;;;10.60
54746;BMP180;40640;48.130;11.356;2022-09-27T23:07:51;94265.00;;;10.60
54746;BMP180;40640;48.130;11.356;2022-09-27T23:11:56;94252.00;;;10.70
54746;BMP180;40640;48.130;11.356;2022-09-27T23:15:59;94242.00;;;10.40
54746;BMP180;40640;48.130;11.356;2022-09-27T23:20:03;94246.00;;;10.50
54746;BMP180;40640;48.130;11.356;2022-09-27T23:24:05;94241.00;;;10.50
54746;BMP180;40640;48.130;11.356;2022-09-27T23:28:10;94220.00;;;10.40
54746;BMP180;40640;48.130;11.356;2022-09-27T23:32:13;94223.00;;;10.30
54746;BMP180;40640;48.130;11.356;2022-09-27T23:36:17;94216.00;;;10.30
54746;BMP180;40640;48.130;11.356;2022-09-27T23:40:20;94221.00;;;10.50
54746;BMP180;40640;48.130;11.356;2022-09-27T23:44:25;94210.00;;;10.50